sensor_id;sensor_type;location;lat;lon;timestamp;P1;durP1;ratioP1;P2;durP2;ratioP2
78209;SDS011;67485;48.816;9.930;2023-07-13T00:00:41;3.20;;;1.80;;
78209;SDS011;67485;48.816;9.930;2023-07-13T00:03:07;3.35;;;1.77;;
78209;SDS011;67485;48.816;9.930;2023-07-13T00:05:33;2.80;;;1.70;;
78209;SDS011;67485;48.816;9.930;2023-07-13T00:07:59;2.40;;;1.47;;
78209;SDS011;67485;48.816;9.930;2023-07-13T00:10:24;2.35;;;1.33;;
78209;SDS011;67485;48.816;9.930;2023-07-13T00:12:51;2.63;;;1.65;;
78209;SDS011;67485;48.816;9.930;2023-07-13T00:15:21;2.97;;;1.53;;
78209;SDS011;67485;48.816;9.930;2023-07-13T00:17:55;3.25;;;1.80;;
78209;SDS011;67485;48.816;9.930;2023-07-13T00:20:21;3.85;;;1.90;;
78209;SDS011;67485;48.816;9.930;2023-07-13T00:22:50;3.58;;;1.70;;
78209;SDS011;67485;48.816;9.930;2023-07-13T00:25:18;2.40;;;1.45;;
78209;SDS011;67485;48.816;9.930;2023-07-13T00:27:49;4.27;;;1.60;;
78209;SDS011;67485;48.816;9.930;2023-07-13T00:30:15;4.70;;;1.70;;
78209;SDS011;67485;48.816;9.930;2023-07-13T00:32:41;3.47;;;1.48;;
78209;SDS011;67485;48.816;9.930;2023-07-13T00:35:07;2.88;;;1.48;;
78209;SDS011;67485;48.816;9.930;2023-07-13T00:37:33;2.97;;;1.47;;
78209;SDS011;67485;48.816;9.930;2023-07-13T00:40:01;4.70;;;1.70;;
78209;SDS011;67485;48.816;9.930;2023-07-13T00:42:29;4.47;;;1.42;;
78209;SDS011;67485;48.816;9.930;2023-07-13T00:47:46;2.00;;;1.43;;
78209;SDS011;67485;48.816;9.930;2023-07-13T00:50:13;2.38;;;1.48;;
78209;SDS011;67485;48.816;9.930;2023-07-13T00:52:41;3.35;;;1.67;;
78209;SDS011;67485;48.816;9.930;2023-07-13T00:55:10;2.23;;;1.33;;
78209;SDS011;67485;48.816;9.930;2023-07-13T00:57:37;4.80;;;1.33;;
78209;SDS011;67485;48.816;9.930;2023-07-13T01:00:06;2.00;;;1.23;;
78209;SDS011;67485;48.816;9.930;2023-07-13T01:02:35;6.13;;;1.45;;
78209;SDS011;67485;48.816;9.930;2023-07-13T01:05:08;4.28;;;1.17;;
78209;SDS011;67485;48.816;9.930;2023-07-13T01:07:43;2.30;;;1.40;;
78209;SDS011;67485;48.816;9.930;2023-07-13T01:10:10;2.55;;;1.30;;
78209;SDS011;67485;48.816;9.930;2023-07-13T01:12:39;3.53;;;1.33;;
78209;SDS011;67485;48.816;9.930;2023-07-13T01:15:05;2.30;;;1.17;;
78209;SDS011;67485;48.816;9.930;2023-07-13T01:17:51;2.15;;;1.35;;
78209;SDS011;67485;48.816;9.930;2023-07-13T01:20:17;3.53;;;1.30;;
78209;SDS011;67485;48.816;9.930;2023-07-13T01:22:43;2.80;;;1.40;;
78209;SDS011;67485;48.816;9.930;2023-07-13T01:25:09;2.87;;;1.43;;
78209;SDS011;67485;48.816;9.930;2023-07-13T01:27:34;1.98;;;1.20;;
78209;SDS011;67485;48.816;9.930;2023-07-13T01:30:01;2.88;;;1.25;;
78209;SDS011;67485;48.816;9.930;2023-07-13T01:32:29;4.37;;;1.17;;
78209;SDS011;67485;48.816;9.930;2023-07-13T01:34:56;2.63;;;1.52;;
78209;SDS011;67485;48.816;9.930;2023-07-13T01:37:25;3.72;;;1.30;;
78209;SDS011;67485;48.816;9.930;2023-07-13T01:39:52;5.03;;;1.30;;
78209;SDS011;67485;48.816;9.930;2023-07-13T01:42:18;3.25;;;1.55;;
78209;SDS011;67485;48.816;9.930;2023-07-13T01:44:44;5.45;;;1.40;;
78209;SDS011;67485;48.816;9.930;2023-07-13T01:47:10;1.90;;;1.20;;
78209;SDS011;67485;48.816;9.930;2023-07-13T01:49:36;3.85;;;1.63;;
78209;SDS011;67485;48.816;9.930;2023-07-13T01:52:03;2.97;;;1.10;;
78209;SDS011;67485;48.816;9.930;2023-07-13T01:54:30;2.28;;;1.20;;
78209;SDS011;67485;48.816;9.930;2023-07-13T01:56:56;2.50;;;1.00;;
78209;SDS011;67485;48.816;9.930;2023-07-13T01:59:21;2.03;;;1.20;;
78209;SDS011;67485;48.816;9.930;2023-07-13T02:01:47;2.53;;;1.10;;
78209;SDS011;67485;48.816;9.930;2023-07-13T02:04:13;4.10;;;1.10;;
78209;SDS011;67485;48.816;9.930;2023-07-13T02:06:39;3.73;;;2.00;;
78209;SDS011;67485;48.816;9.930;2023-07-13T02:09:04;2.72;;;1.50;;
78209;SDS011;67485;48.816;9.930;2023-07-13T02:11:30;3.43;;;1.40;;
78209;SDS011;67485;48.816;9.930;2023-07-13T02:14:02;2.83;;;1.20;;
78209;SDS011;67485;48.816;9.930;2023-07-13T02:16:29;2.63;;;1.00;;
78209;SDS011;67485;48.816;9.930;2023-07-13T02:18:56;4.75;;;1.20;;
78209;SDS011;67485;48.816;9.930;2023-07-13T02:21:22;4.13;;;1.05;;
78209;SDS011;67485;48.816;9.930;2023-07-13T02:23:51;3.53;;;1.03;;
78209;SDS011;67485;48.816;9.930;2023-07-13T02:26:17;2.42;;;1.10;;
78209;SDS011;67485;48.816;9.930;2023-07-13T02:28:44;3.08;;;0.80;;
78209;SDS011;67485;48.816;9.930;2023-07-13T02:31:12;1.98;;;1.02;;
78209;SDS011;67485;48.816;9.930;2023-07-13T02:33:39;2.85;;;1.55;;
78209;SDS011;67485;48.816;9.930;2023-07-13T02:36:05;1.80;;;1.03;;
78209;SDS011;67485;48.816;9.930;2023-07-13T02:38:34;2.70;;;1.35;;
78209;SDS011;67485;48.816;9.930;2023-07-13T02:41:02;2.55;;;1.40;;
78209;SDS011;67485;48.816;9.930;2023-07-13T02:43:32;2.63;;;1.40;;
78209;SDS011;67485;48.816;9.930;2023-07-13T02:45:59;2.92;;;1.30;;
78209;SDS011;67485;48.816;9.930;2023-07-13T02:48:32;2.47;;;1.27;;
78209;SDS011;67485;48.816;9.930;2023-07-13T02:50:58;5.78;;;1.50;;
78209;SDS011;67485;48.816;9.930;2023-07-13T02:53:24;3.23;;;1.20;;
78209;SDS011;67485;48.816;9.930;2023-07-13T02:55:50;3.63;;;1.27;;
78209;SDS011;67485;48.816;9.930;2023-07-13T02:58:16;4.67;;;1.30;;
78209;SDS011;67485;48.816;9.930;2023-07-13T03:00:45;3.03;;;1.20;;
78209;SDS011;67485;48.816;9.930;2023-07-13T03:03:13;2.83;;;1.60;;
78209;SDS011;67485;48.816;9.930;2023-07-13T03:05:41;2.78;;;1.48;;
78209;SDS011;67485;48.816;9.930;2023-07-13T03:08:08;2.97;;;1.57;;
78209;SDS011;67485;48.816;9.930;2023-07-13T03:10:35;5.00;;;1.58;;
78209;SDS011;67485;48.816;9.930;2023-07-13T03:13:01;4.07;;;1.42;;
78209;SDS011;67485;48.816;9.930;2023-07-13T03:15:27;3.53;;;1.50;;
78209;SDS011;67485;48.816;9.930;2023-07-13T03:17:54;2.72;;;1.58;;
78209;SDS011;67485;48.816;9.930;2023-07-13T03:20:20;2.57;;;1.20;;
78209;SDS011;67485;48.816;9.930;2023-07-13T03:22:46;2.33;;;1.40;;
78209;SDS011;67485;48.816;9.930;2023-07-13T03:25:12;5.27;;;1.40;;
78209;SDS011;67485;48.816;9.930;2023-07-13T03:27:38;5.85;;;1.05;;
78209;SDS011;67485;48.816;9.930;2023-07-13T03:30:06;2.67;;;1.10;;
78209;SDS011;67485;48.816;9.930;2023-07-13T03:32:33;3.75;;;1.30;;
78209;SDS011;67485;48.816;9.930;2023-07-13T03:34:59;4.83;;;1.40;;
78209;SDS011;67485;48.816;9.930;2023-07-13T03:37:25;3.70;;;1.50;;
78209;SDS011;67485;48.816;9.930;2023-07-13T03:39:50;4.57;;;1.50;;
78209;SDS011;67485;48.816;9.930;2023-07-13T03:42:17;3.75;;;1.23;;
78209;SDS011;67485;48.816;9.930;2023-07-13T03:44:43;2.85;;;1.27;;
78209;SDS011;67485;48.816;9.930;2023-07-13T03:47:15;2.20;;;1.23;;
78209;SDS011;67485;48.816;9.930;2023-07-13T03:49:42;2.88;;;1.40;;
78209;SDS011;67485;48.816;9.930;2023-07-13T03:52:08;2.00;;;1.30;;
78209;SDS011;67485;48.816;9.930;2023-07-13T03:54:34;2.23;;;1.30;;
78209;SDS011;67485;48.816;9.930;2023-07-13T03:57:00;6.55;;;1.25;;
78209;SDS011;67485;48.816;9.930;2023-07-13T03:59:28;3.00;;;1.10;;
78209;SDS011;67485;48.816;9.930;2023-07-13T04:01:53;2.37;;;1.30;;
78209;SDS011;67485;48.816;9.930;2023-07-13T04:04:20;2.95;;;1.13;;
78209;SDS011;67485;48.816;9.930;2023-07-13T04:06:46;3.63;;;1.27;;
78209;SDS011;67485;48.816;9.930;2023-07-13T04:09:11;4.47;;;1.50;;
78209;SDS011;67485;48.816;9.930;2023-07-13T04:11:37;5.10;;;1.73;;
78209;SDS011;67485;48.816;9.930;2023-07-13T04:14:03;3.55;;;1.48;;
78209;SDS011;67485;48.816;9.930;2023-07-13T04:16:29;4.80;;;1.20;;
78209;SDS011;67485;48.816;9.930;2023-07-13T04:18:55;6.53;;;1.33;;
78209;SDS011;67485;48.816;9.930;2023-07-13T04:21:25;2.78;;;1.33;;
78209;SDS011;67485;48.816;9.930;2023-07-13T04:23:52;2.35;;;1.30;;
78209;SDS011;67485;48.816;9.930;2023-07-13T04:26:18;2.33;;;1.30;;
78209;SDS011;67485;48.816;9.930;2023-07-13T04:28:46;3.97;;;1.38;;
78209;SDS011;67485;48.816;9.930;2023-07-13T04:31:12;4.43;;;1.42;;
78209;SDS011;67485;48.816;9.930;2023-07-13T04:33:38;2.20;;;1.20;;
78209;SDS011;67485;48.816;9.930;2023-07-13T04:36:04;4.43;;;1.40;;
78209;SDS011;67485;48.816;9.930;2023-07-13T04:38:31;2.08;;;1.40;;
78209;SDS011;67485;48.816;9.930;2023-07-13T04:40:59;3.13;;;1.27;;
78209;SDS011;67485;48.816;9.930;2023-07-13T04:43:26;5.47;;;1.90;;
78209;SDS011;67485;48.816;9.930;2023-07-13T04:45:52;3.67;;;1.30;;
78209;SDS011;67485;48.816;9.930;2023-07-13T04:48:18;3.10;;;1.25;;
78209;SDS011;67485;48.816;9.930;2023-07-13T04:50:44;4.88;;;1.52;;
78209;SDS011;67485;48.816;9.930;2023-07-13T04:53:11;2.88;;;1.40;;
78209;SDS011;67485;48.816;9.930;2023-07-13T04:55:37;5.57;;;1.43;;
78209;SDS011;67485;48.816;9.930;2023-07-13T04:58:03;3.80;;;1.40;;
78209;SDS011;67485;48.816;9.930;2023-07-13T05:00:30;3.70;;;1.50;;
78209;SDS011;67485;48.816;9.930;2023-07-13T05:02:57;3.65;;;1.35;;
78209;SDS011;67485;48.816;9.930;2023-07-13T05:05:24;4.27;;;1.43;;
78209;SDS011;67485;48.816;9.930;2023-07-13T05:07:51;2.40;;;1.40;;
78209;SDS011;67485;48.816;9.930;2023-07-13T05:10:17;4.07;;;1.60;;
78209;SDS011;67485;48.816;9.930;2023-07-13T05:12:43;4.25;;;1.90;;
78209;SDS011;67485;48.816;9.930;2023-07-13T05:15:09;4.93;;;1.90;;
78209;SDS011;67485;48.816;9.930;2023-07-13T05:17:35;3.25;;;1.50;;
78209;SDS011;67485;48.816;9.930;2023-07-13T05:20:01;3.43;;;1.47;;
78209;SDS011;67485;48.816;9.930;2023-07-13T05:22:26;2.42;;;1.60;;
78209;SDS011;67485;48.816;9.930;2023-07-13T05:24:52;3.80;;;1.40;;
78209;SDS011;67485;48.816;9.930;2023-07-13T05:27:18;3.92;;;1.60;;
78209;SDS011;67485;48.816;9.930;2023-07-13T05:29:43;5.93;;;1.70;;
78209;SDS011;67485;48.816;9.930;2023-07-13T05:32:09;5.35;;;1.77;;
78209;SDS011;67485;48.816;9.930;2023-07-13T05:34:35;3.33;;;1.20;;
78209;SDS011;67485;48.816;9.930;2023-07-13T05:37:00;3.28;;;1.73;;
78209;SDS011;67485;48.816;9.930;2023-07-13T05:39:26;3.20;;;1.47;;
78209;SDS011;67485;48.816;9.930;2023-07-13T05:41:52;3.65;;;1.27;;
78209;SDS011;67485;48.816;9.930;2023-07-13T05:44:18;2.60;;;1.40;;
78209;SDS011;67485;48.816;9.930;2023-07-13T05:46:44;2.27;;;1.30;;
78209;SDS011;67485;48.816;9.930;2023-07-13T05:49:10;6.38;;;1.60;;
78209;SDS011;67485;48.816;9.930;2023-07-13T05:51:36;4.65;;;1.60;;
78209;SDS011;67485;48.816;9.930;2023-07-13T05:54:02;3.30;;;1.50;;
78209;SDS011;67485;48.816;9.930;2023-07-13T05:56:27;3.05;;;1.40;;
78209;SDS011;67485;48.816;9.930;2023-07-13T05:58:53;3.27;;;1.50;;
78209;SDS011;67485;48.816;9.930;2023-07-13T06:01:18;4.07;;;1.40;;
78209;SDS011;67485;48.816;9.930;2023-07-13T06:03:46;5.23;;;1.53;;
78209;SDS011;67485;48.816;9.930;2023-07-13T06:06:12;2.72;;;1.80;;
78209;SDS011;67485;48.816;9.930;2023-07-13T06:08:38;3.60;;;1.60;;
78209;SDS011;67485;48.816;9.930;2023-07-13T06:11:05;3.90;;;1.50;;
78209;SDS011;67485;48.816;9.930;2023-07-13T06:13:45;4.20;;;1.45;;
78209;SDS011;67485;48.816;9.930;2023-07-13T06:16:11;3.83;;;1.50;;
78209;SDS011;67485;48.816;9.930;2023-07-13T06:18:37;3.00;;;1.35;;
78209;SDS011;67485;48.816;9.930;2023-07-13T06:21:07;4.00;;;1.73;;
78209;SDS011;67485;48.816;9.930;2023-07-13T06:23:37;3.10;;;1.23;;
78209;SDS011;67485;48.816;9.930;2023-07-13T06:26:04;4.43;;;1.60;;
78209;SDS011;67485;48.816;9.930;2023-07-13T06:28:30;2.75;;;1.38;;
78209;SDS011;67485;48.816;9.930;2023-07-13T06:30:57;4.97;;;1.50;;
78209;SDS011;67485;48.816;9.930;2023-07-13T06:33:23;5.70;;;1.30;;
78209;SDS011;67485;48.816;9.930;2023-07-13T06:35:49;4.10;;;1.55;;
78209;SDS011;67485;48.816;9.930;2023-07-13T06:38:15;3.27;;;1.30;;
78209;SDS011;67485;48.816;9.930;2023-07-13T06:40:41;3.65;;;1.58;;
78209;SDS011;67485;48.816;9.930;2023-07-13T06:43:07;3.77;;;1.80;;
78209;SDS011;67485;48.816;9.930;2023-07-13T06:45:35;2.42;;;1.48;;
78209;SDS011;67485;48.816;9.930;2023-07-13T06:48:06;3.03;;;1.48;;
78209;SDS011;67485;48.816;9.930;2023-07-13T06:50:33;4.33;;;1.40;;
78209;SDS011;67485;48.816;9.930;2023-07-13T06:52:59;4.00;;;1.40;;
78209;SDS011;67485;48.816;9.930;2023-07-13T06:55:25;3.75;;;1.65;;
78209;SDS011;67485;48.816;9.930;2023-07-13T06:57:51;2.25;;;1.17;;
78209;SDS011;67485;48.816;9.930;2023-07-13T07:00:17;2.70;;;1.40;;
78209;SDS011;67485;48.816;9.930;2023-07-13T07:02:43;4.90;;;1.15;;
78209;SDS011;67485;48.816;9.930;2023-07-13T07:05:08;3.40;;;1.48;;
78209;SDS011;67485;48.816;9.930;2023-07-13T07:07:34;4.33;;;1.50;;
78209;SDS011;67485;48.816;9.930;2023-07-13T07:10:00;4.35;;;1.60;;
78209;SDS011;67485;48.816;9.930;2023-07-13T07:12:26;3.40;;;1.70;;
78209;SDS011;67485;48.816;9.930;2023-07-13T07:14:51;2.63;;;1.52;;
78209;SDS011;67485;48.816;9.930;2023-07-13T07:17:17;3.00;;;1.83;;
78209;SDS011;67485;48.816;9.930;2023-07-13T07:19:42;3.53;;;1.30;;
78209;SDS011;67485;48.816;9.930;2023-07-13T07:22:08;5.20;;;1.50;;
78209;SDS011;67485;48.816;9.930;2023-07-13T07:24:34;3.27;;;1.37;;
78209;SDS011;67485;48.816;9.930;2023-07-13T07:26:59;4.93;;;1.70;;
78209;SDS011;67485;48.816;9.930;2023-07-13T07:29:25;3.70;;;1.70;;
78209;SDS011;67485;48.816;9.930;2023-07-13T07:31:52;4.78;;;1.55;;
78209;SDS011;67485;48.816;9.930;2023-07-13T07:34:18;7.88;;;1.50;;
78209;SDS011;67485;48.816;9.930;2023-07-13T07:36:44;2.63;;;1.30;;
78209;SDS011;67485;48.816;9.930;2023-07-13T07:39:10;3.50;;;1.30;;
78209;SDS011;67485;48.816;9.930;2023-07-13T07:41:36;2.83;;;1.50;;
78209;SDS011;67485;48.816;9.930;2023-07-13T07:44:03;4.23;;;1.67;;
78209;SDS011;67485;48.816;9.930;2023-07-13T07:46:29;4.30;;;1.10;;
78209;SDS011;67485;48.816;9.930;2023-07-13T07:48:55;3.50;;;1.67;;
78209;SDS011;67485;48.816;9.930;2023-07-13T07:51:21;3.33;;;1.55;;
78209;SDS011;67485;48.816;9.930;2023-07-13T07:53:47;3.83;;;1.33;;
78209;SDS011;67485;48.816;9.930;2023-07-13T07:56:13;3.80;;;1.67;;
78209;SDS011;67485;48.816;9.930;2023-07-13T07:58:41;5.50;;;1.83;;
78209;SDS011;67485;48.816;9.930;2023-07-13T08:01:07;3.20;;;1.15;;
78209;SDS011;67485;48.816;9.930;2023-07-13T08:03:33;4.10;;;1.50;;
78209;SDS011;67485;48.816;9.930;2023-07-13T08:05:59;2.67;;;1.38;;
78209;SDS011;67485;48.816;9.930;2023-07-13T08:08:24;4.82;;;1.85;;
78209;SDS011;67485;48.816;9.930;2023-07-13T08:10:50;3.17;;;1.40;;
78209;SDS011;67485;48.816;9.930;2023-07-13T08:13:16;3.15;;;1.48;;
78209;SDS011;67485;48.816;9.930;2023-07-13T08:15:41;3.37;;;1.50;;
78209;SDS011;67485;48.816;9.930;2023-07-13T08:18:07;2.80;;;2.10;;
78209;SDS011;67485;48.816;9.930;2023-07-13T08:20:38;4.93;;;1.90;;
78209;SDS011;67485;48.816;9.930;2023-07-13T08:23:04;3.50;;;1.90;;
78209;SDS011;67485;48.816;9.930;2023-07-13T08:25:31;4.50;;;1.65;;
78209;SDS011;67485;48.816;9.930;2023-07-13T08:27:56;3.45;;;1.65;;
78209;SDS011;67485;48.816;9.930;2023-07-13T08:30:22;3.90;;;1.83;;
78209;SDS011;67485;48.816;9.930;2023-07-13T08:32:48;4.95;;;2.10;;
78209;SDS011;67485;48.816;9.930;2023-07-13T08:35:14;3.50;;;1.83;;
78209;SDS011;67485;48.816;9.930;2023-07-13T08:37:41;3.63;;;1.50;;
78209;SDS011;67485;48.816;9.930;2023-07-13T08:40:10;3.42;;;1.52;;
78209;SDS011;67485;48.816;9.930;2023-07-13T08:42:42;3.58;;;1.73;;
78209;SDS011;67485;48.816;9.930;2023-07-13T08:48:01;2.40;;;1.40;;
78209;SDS011;67485;48.816;9.930;2023-07-13T08:50:31;3.80;;;1.80;;
78209;SDS011;67485;48.816;9.930;2023-07-13T08:53:00;2.92;;;1.25;;
78209;SDS011;67485;48.816;9.930;2023-07-13T08:55:33;3.60;;;2.20;;
78209;SDS011;67485;48.816;9.930;2023-07-13T08:58:12;4.88;;;1.40;;
78209;SDS011;67485;48.816;9.930;2023-07-13T09:03:23;3.30;;;1.53;;
78209;SDS011;67485;48.816;9.930;2023-07-13T09:05:56;5.22;;;1.63;;
78209;SDS011;67485;48.816;9.930;2023-07-13T09:08:44;3.33;;;1.90;;
78209;SDS011;67485;48.816;9.930;2023-07-13T09:11:27;3.40;;;1.63;;
78209;SDS011;67485;48.816;9.930;2023-07-13T09:16:58;2.50;;;1.43;;
78209;SDS011;67485;48.816;9.930;2023-07-13T09:19:28;3.95;;;1.75;;
78209;SDS011;67485;48.816;9.930;2023-07-13T09:21:57;2.58;;;1.52;;
78209;SDS011;67485;48.816;9.930;2023-07-13T09:24:38;3.58;;;1.58;;
78209;SDS011;67485;48.816;9.930;2023-07-13T09:27:19;2.72;;;1.20;;
78209;SDS011;67485;48.816;9.930;2023-07-13T09:32:39;3.90;;;1.38;;
78209;SDS011;67485;48.816;9.930;2023-07-13T09:35:14;3.25;;;1.70;;
78209;SDS011;67485;48.816;9.930;2023-07-13T09:37:43;2.55;;;1.40;;
78209;SDS011;67485;48.816;9.930;2023-07-13T09:40:12;3.35;;;1.90;;
78209;SDS011;67485;48.816;9.930;2023-07-13T09:42:45;2.90;;;1.70;;
78209;SDS011;67485;48.816;9.930;2023-07-13T09:45:12;3.33;;;1.60;;
78209;SDS011;67485;48.816;9.930;2023-07-13T09:47:53;4.70;;;1.83;;
78209;SDS011;67485;48.816;9.930;2023-07-13T09:50:25;3.72;;;1.80;;
78209;SDS011;67485;48.816;9.930;2023-07-13T09:52:50;4.97;;;2.00;;
78209;SDS011;67485;48.816;9.930;2023-07-13T09:55:23;7.38;;;1.70;;
78209;SDS011;67485;48.816;9.930;2023-07-13T09:57:55;5.05;;;1.73;;
78209;SDS011;67485;48.816;9.930;2023-07-13T10:00:21;3.40;;;1.97;;
78209;SDS011;67485;48.816;9.930;2023-07-13T10:02:58;3.90;;;1.58;;
78209;SDS011;67485;48.816;9.930;2023-07-13T10:05:45;2.97;;;1.25;;
78209;SDS011;67485;48.816;9.930;2023-07-13T10:08:30;3.63;;;1.75;;
78209;SDS011;67485;48.816;9.930;2023-07-13T10:11:08;3.47;;;1.73;;
78209;SDS011;67485;48.816;9.930;2023-07-13T10:13:36;4.27;;;1.50;;
78209;SDS011;67485;48.816;9.930;2023-07-13T10:16:06;2.92;;;1.20;;
78209;SDS011;67485;48.816;9.930;2023-07-13T10:18:39;3.85;;;1.90;;
78209;SDS011;67485;48.816;9.930;2023-07-13T10:21:14;5.35;;;1.77;;
78209;SDS011;67485;48.816;9.930;2023-07-13T10:23:45;2.53;;;1.40;;
78209;SDS011;67485;48.816;9.930;2023-07-13T10:26:19;3.87;;;1.47;;
78209;SDS011;67485;48.816;9.930;2023-07-13T10:28:51;4.57;;;1.70;;
78209;SDS011;67485;48.816;9.930;2023-07-13T10:31:20;3.35;;;1.70;;
78209;SDS011;67485;48.816;9.930;2023-07-13T10:33:46;3.58;;;1.42;;
78209;SDS011;67485;48.816;9.930;2023-07-13T10:36:14;3.90;;;1.90;;
78209;SDS011;67485;48.816;9.930;2023-07-13T10:38:46;3.40;;;1.73;;
78209;SDS011;67485;48.816;9.930;2023-07-13T10:41:18;4.25;;;1.70;;
78209;SDS011;67485;48.816;9.930;2023-07-13T10:43:47;5.47;;;2.28;;
78209;SDS011;67485;48.816;9.930;2023-07-13T10:46:17;3.35;;;1.60;;
78209;SDS011;67485;48.816;9.930;2023-07-13T10:48:46;3.35;;;1.88;;
78209;SDS011;67485;48.816;9.930;2023-07-13T10:51:17;4.00;;;1.80;;
78209;SDS011;67485;48.816;9.930;2023-07-13T10:53:46;3.17;;;1.92;;
78209;SDS011;67485;48.816;9.930;2023-07-13T10:56:28;2.72;;;1.80;;
78209;SDS011;67485;48.816;9.930;2023-07-13T10:59:02;3.95;;;1.45;;
78209;SDS011;67485;48.816;9.930;2023-07-13T11:01:50;3.47;;;1.67;;
78209;SDS011;67485;48.816;9.930;2023-07-13T11:04:21;3.50;;;1.70;;
78209;SDS011;67485;48.816;9.930;2023-07-13T11:06:53;2.70;;;1.60;;
78209;SDS011;67485;48.816;9.930;2023-07-13T11:12:09;5.30;;;1.75;;
78209;SDS011;67485;48.816;9.930;2023-07-13T11:20:31;4.70;;;1.95;;
78209;SDS011;67485;48.816;9.930;2023-07-13T11:25:37;2.78;;;1.40;;
78209;SDS011;67485;48.816;9.930;2023-07-13T11:30:39;3.07;;;1.90;;
78209;SDS011;67485;48.816;9.930;2023-07-13T11:36:00;3.58;;;1.67;;
78209;SDS011;67485;48.816;9.930;2023-07-13T11:38:36;3.45;;;1.83;;
78209;SDS011;67485;48.816;9.930;2023-07-13T11:41:15;4.38;;;1.88;;
78209;SDS011;67485;48.816;9.930;2023-07-13T11:43:44;3.00;;;1.63;;
78209;SDS011;67485;48.816;9.930;2023-07-13T11:46:15;4.03;;;1.80;;
78209;SDS011;67485;48.816;9.930;2023-07-13T11:48:46;3.85;;;1.65;;
78209;SDS011;67485;48.816;9.930;2023-07-13T11:51:23;3.97;;;1.73;;
78209;SDS011;67485;48.816;9.930;2023-07-13T11:53:53;3.72;;;1.75;;
78209;SDS011;67485;48.816;9.930;2023-07-13T11:56:20;4.23;;;2.23;;
78209;SDS011;67485;48.816;9.930;2023-07-13T11:58:48;4.68;;;1.80;;
78209;SDS011;67485;48.816;9.930;2023-07-13T12:01:18;3.78;;;1.98;;
78209;SDS011;67485;48.816;9.930;2023-07-13T12:03:47;3.22;;;2.10;;
78209;SDS011;67485;48.816;9.930;2023-07-13T12:06:33;3.20;;;1.95;;
78209;SDS011;67485;48.816;9.930;2023-07-13T12:09:11;2.07;;;1.57;;
78209;SDS011;67485;48.816;9.930;2023-07-13T12:11:42;4.80;;;1.42;;
78209;SDS011;67485;48.816;9.930;2023-07-13T12:14:14;4.38;;;2.10;;
78209;SDS011;67485;48.816;9.930;2023-07-13T12:16:41;2.30;;;1.40;;
78209;SDS011;67485;48.816;9.930;2023-07-13T12:19:40;8.52;;;2.30;;
78209;SDS011;67485;48.816;9.930;2023-07-13T12:21:59;3.20;;;1.83;;
78209;SDS011;67485;48.816;9.930;2023-07-13T12:24:25;4.18;;;1.63;;
78209;SDS011;67485;48.816;9.930;2023-07-13T12:26:52;4.18;;;1.65;;
78209;SDS011;67485;48.816;9.930;2023-07-13T12:29:20;4.47;;;1.50;;
78209;SDS011;67485;48.816;9.930;2023-07-13T12:31:47;2.90;;;1.70;;
78209;SDS011;67485;48.816;9.930;2023-07-13T12:34:18;3.20;;;1.80;;
78209;SDS011;67485;48.816;9.930;2023-07-13T12:36:53;3.85;;;1.70;;
78209;SDS011;67485;48.816;9.930;2023-07-13T12:39:24;3.67;;;1.83;;
78209;SDS011;67485;48.816;9.930;2023-07-13T12:42:13;4.57;;;1.70;;
78209;SDS011;67485;48.816;9.930;2023-07-13T12:44:40;4.27;;;1.60;;
78209;SDS011;67485;48.816;9.930;2023-07-13T12:47:09;3.33;;;1.30;;
78209;SDS011;67485;48.816;9.930;2023-07-13T12:49:59;5.10;;;1.77;;
78209;SDS011;67485;48.816;9.930;2023-07-13T12:52:33;4.00;;;1.90;;
78209;SDS011;67485;48.816;9.930;2023-07-13T12:57:58;3.90;;;1.80;;
78209;SDS011;67485;48.816;9.930;2023-07-13T13:03:02;6.10;;;1.67;;
78209;SDS011;67485;48.816;9.930;2023-07-13T13:05:32;4.30;;;1.88;;
78209;SDS011;67485;48.816;9.930;2023-07-13T13:07:59;3.90;;;1.80;;
78209;SDS011;67485;48.816;9.930;2023-07-13T13:10:25;4.03;;;1.60;;
78209;SDS011;67485;48.816;9.930;2023-07-13T13:12:51;4.00;;;1.80;;
78209;SDS011;67485;48.816;9.930;2023-07-13T13:15:17;3.63;;;1.67;;
78209;SDS011;67485;48.816;9.930;2023-07-13T13:17:43;6.97;;;1.80;;
78209;SDS011;67485;48.816;9.930;2023-07-13T13:20:19;3.03;;;1.40;;
78209;SDS011;67485;48.816;9.930;2023-07-13T13:22:47;5.50;;;1.48;;
78209;SDS011;67485;48.816;9.930;2023-07-13T13:25:13;6.47;;;1.63;;
78209;SDS011;67485;48.816;9.930;2023-07-13T13:27:40;3.00;;;1.10;;
78209;SDS011;67485;48.816;9.930;2023-07-13T13:30:10;2.60;;;1.58;;
78209;SDS011;67485;48.816;9.930;2023-07-13T13:32:44;3.17;;;1.35;;
78209;SDS011;67485;48.816;9.930;2023-07-13T13:35:15;3.90;;;1.83;;
78209;SDS011;67485;48.816;9.930;2023-07-13T13:37:43;5.73;;;1.80;;
78209;SDS011;67485;48.816;9.930;2023-07-13T13:40:20;6.45;;;2.03;;
78209;SDS011;67485;48.816;9.930;2023-07-13T13:42:48;7.00;;;2.50;;
78209;SDS011;67485;48.816;9.930;2023-07-13T13:45:14;4.78;;;2.30;;
78209;SDS011;67485;48.816;9.930;2023-07-13T13:47:41;6.20;;;1.60;;
78209;SDS011;67485;48.816;9.930;2023-07-13T13:52:43;7.03;;;1.60;;
78209;SDS011;67485;48.816;9.930;2023-07-13T13:55:17;3.38;;;1.88;;
78209;SDS011;67485;48.816;9.930;2023-07-13T13:57:47;3.30;;;2.17;;
78209;SDS011;67485;48.816;9.930;2023-07-13T14:00:14;3.33;;;1.90;;
78209;SDS011;67485;48.816;9.930;2023-07-13T14:02:40;5.20;;;1.87;;
78209;SDS011;67485;48.816;9.930;2023-07-13T14:05:09;3.88;;;1.88;;
78209;SDS011;67485;48.816;9.930;2023-07-13T14:07:38;4.57;;;1.60;;
78209;SDS011;67485;48.816;9.930;2023-07-13T14:10:14;3.33;;;2.10;;
78209;SDS011;67485;48.816;9.930;2023-07-13T14:12:45;3.13;;;1.50;;
78209;SDS011;67485;48.816;9.930;2023-07-13T14:15:26;3.08;;;1.60;;
78209;SDS011;67485;48.816;9.930;2023-07-13T14:17:53;3.00;;;1.90;;
78209;SDS011;67485;48.816;9.930;2023-07-13T14:20:20;4.70;;;1.73;;
78209;SDS011;67485;48.816;9.930;2023-07-13T14:22:49;5.20;;;1.97;;
78209;SDS011;67485;48.816;9.930;2023-07-13T14:25:16;4.07;;;1.70;;
78209;SDS011;67485;48.816;9.930;2023-07-13T14:27:43;6.72;;;5.35;;
78209;SDS011;67485;48.816;9.930;2023-07-13T14:30:13;7.18;;;4.18;;
78209;SDS011;67485;48.816;9.930;2023-07-13T14:32:44;11.20;;;4.35;;
78209;SDS011;67485;48.816;9.930;2023-07-13T14:35:13;4.87;;;2.13;;
78209;SDS011;67485;48.816;9.930;2023-07-13T14:37:40;6.28;;;4.10;;
78209;SDS011;67485;48.816;9.930;2023-07-13T14:40:21;5.45;;;2.83;;
78209;SDS011;67485;48.816;9.930;2023-07-13T14:42:54;3.58;;;2.05;;
78209;SDS011;67485;48.816;9.930;2023-07-13T14:45:19;6.37;;;2.47;;
78209;SDS011;67485;48.816;9.930;2023-07-13T14:47:46;6.85;;;2.10;;
78209;SDS011;67485;48.816;9.930;2023-07-13T14:50:20;7.68;;;2.90;;
78209;SDS011;67485;48.816;9.930;2023-07-13T14:52:47;5.07;;;2.85;;
78209;SDS011;67485;48.816;9.930;2023-07-13T14:55:14;4.40;;;3.03;;
78209;SDS011;67485;48.816;9.930;2023-07-13T14:57:42;7.90;;;3.80;;
78209;SDS011;67485;48.816;9.930;2023-07-13T15:00:14;5.65;;;2.42;;
78209;SDS011;67485;48.816;9.930;2023-07-13T15:02:47;3.73;;;1.70;;
78209;SDS011;67485;48.816;9.930;2023-07-13T15:05:16;4.40;;;1.88;;
78209;SDS011;67485;48.816;9.930;2023-07-13T15:07:44;7.28;;;1.90;;
78209;SDS011;67485;48.816;9.930;2023-07-13T15:10:17;3.90;;;1.90;;
78209;SDS011;67485;48.816;9.930;2023-07-13T15:12:47;2.50;;;1.80;;
78209;SDS011;67485;48.816;9.930;2023-07-13T15:15:13;2.20;;;1.38;;
78209;SDS011;67485;48.816;9.930;2023-07-13T15:17:40;4.22;;;1.85;;
78209;SDS011;67485;48.816;9.930;2023-07-13T15:22:53;3.70;;;1.83;;
78209;SDS011;67485;48.816;9.930;2023-07-13T15:25:20;7.05;;;1.73;;
78209;SDS011;67485;48.816;9.930;2023-07-13T15:27:47;3.67;;;1.77;;
78209;SDS011;67485;48.816;9.930;2023-07-13T15:30:13;4.93;;;1.90;;
78209;SDS011;67485;48.816;9.930;2023-07-13T15:32:41;4.55;;;2.00;;
78209;SDS011;67485;48.816;9.930;2023-07-13T15:35:13;3.63;;;1.55;;
78209;SDS011;67485;48.816;9.930;2023-07-13T15:37:41;3.60;;;1.50;;